sensor_id;sensor_type;location;lat;lon;timestamp;temperature;humidity
57719;DHT22;43561;50.090;18.522;2023-04-06T00:03:45;-2.40;99.90
57719;DHT22;43561;50.090;18.522;2023-04-06T00:13:47;-2.50;99.90
57719;DHT22;43561;50.090;18.522;2023-04-06T00:23:49;-2.30;99.90
57719;DHT22;43561;50.090;18.522;2023-04-06T00:33:51;-2.70;99.90
57719;DHT22;43561;50.090;18.522;2023-04-06T00:43:54;-2.50;99.90
57719;DHT22;43561;50.090;18.522;2023-04-06T00:53:55;-2.40;99.90
57719;DHT22;43561;50.090;18.522;2023-04-06T01:03:58;-2.60;99.90
57719;DHT22;43561;50.090;18.522;2023-04-06T01:14:00;-2.70;99.90
57719;DHT22;43561;50.090;18.522;2023-04-06T01:24:22;-2.60;99.90
57719;DHT22;43561;50.090;18.522;2023-04-06T01:34:35;-2.90;99.90
57719;DHT22;43561;50.090;18.522;2023-04-06T01:44:39;-3.00;99.90
57719;DHT22;43561;50.090;18.522;2023-04-06T01:54:46;-3.00;99.90
57719;DHT22;43561;50.090;18.522;2023-04-06T02:04:50;-3.00;99.90
57719;DHT22;43561;50.090;18.522;2023-04-06T02:14:52;-3.10;99.90
57719;DHT22;43561;50.090;18.522;2023-04-06T02:24:55;-3.20;99.90
57719;DHT22;43561;50.090;18.522;2023-04-06T02:34:56;-3.20;99.90
57719;DHT22;43561;50.090;18.522;2023-04-06T02:45:00;-3.10;99.90
57719;DHT22;43561;50.090;18.522;2023-04-06T03:06:19;-3.20;99.90
57719;DHT22;43561;50.090;18.522;2023-04-06T03:16:25;-3.10;99.90
57719;DHT22;43561;50.090;18.522;2023-04-06T03:26:28;-3.50;99.90
57719;DHT22;43561;50.090;18.522;2023-04-06T03:36:32;-3.40;99.90
57719;DHT22;43561;50.090;18.522;2023-04-06T03:46:35;-3.40;99.90
57719;DHT22;43561;50.090;18.522;2023-04-06T03:56:37;-3.50;99.90
57719;DHT22;43561;50.090;18.522;2023-04-06T04:06:39;-3.60;99.90
57719;DHT22;43561;50.090;18.522;2023-04-06T04:16:42;-3.50;99.90
57719;DHT22;43561;50.090;18.522;2023-04-06T04:26:44;-3.60;99.90
57719;DHT22;43561;50.090;18.522;2023-04-06T04:36:46;-3.50;99.90
57719;DHT22;43561;50.090;18.522;2023-04-06T04:46:56;-3.30;99.90
57719;DHT22;43561;50.090;18.522;2023-04-06T04:57:07;-2.90;99.90
57719;DHT22;43561;50.090;18.522;2023-04-06T05:07:15;-3.20;99.90
57719;DHT22;43561;50.090;18.522;2023-04-06T05:17:17;-2.80;99.90
57719;DHT22;43561;50.090;18.522;2023-04-06T05:27:20;-2.40;99.90
57719;DHT22;43561;50.090;18.522;2023-04-06T05:37:22;-2.00;99.90
57719;DHT22;43561;50.090;18.522;2023-04-06T05:47:24;-1.70;99.90
57719;DHT22;43561;50.090;18.522;2023-04-06T05:57:35;-1.30;99.90
57719;DHT22;43561;50.090;18.522;2023-04-06T06:07:39;-0.90;99.90
57719;DHT22;43561;50.090;18.522;2023-04-06T06:17:41;-0.50;99.90
57719;DHT22;43561;50.090;18.522;2023-04-06T06:27:43;-0.20;99.90
57719;DHT22;43561;50.090;18.522;2023-04-06T06:37:45;0.10;99.90
57719;DHT22;43561;50.090;18.522;2023-04-06T06:47:51;1.60;99.10
57719;DHT22;43561;50.090;18.522;2023-04-06T06:57:56;1.60;98.40
57719;DHT22;43561;50.090;18.522;2023-04-06T07:07:58;2.30;96.90
57719;DHT22;43561;50.090;18.522;2023-04-06T07:18:01;3.10;92.80
57719;DHT22;43561;50.090;18.522;2023-04-06T07:28:03;3.30;84.50
57719;DHT22;43561;50.090;18.522;2023-04-06T07:38:06;3.70;75.90
57719;DHT22;43561;50.090;18.522;2023-04-06T07:48:09;4.30;76.00
57719;DHT22;43561;50.090;18.522;2023-04-06T07:58:12;4.30;66.50
57719;DHT22;43561;50.090;18.522;2023-04-06T08:08:14;4.30;61.50
57719;DHT22;43561;50.090;18.522;2023-04-06T08:18:17;4.10;62.40
57719;DHT22;43561;50.090;18.522;2023-04-06T08:28:19;3.70;62.50
57719;DHT22;43561;50.090;18.522;2023-04-06T08:38:20;4.00;61.70
57719;DHT22;43561;50.090;18.522;2023-04-06T08:48:23;4.20;61.20
57719;DHT22;43561;50.090;18.522;2023-04-06T08:58:25;4.80;59.30
57719;DHT22;43561;50.090;18.522;2023-04-06T09:08:40;5.10;57.70
57719;DHT22;43561;50.090;18.522;2023-04-06T09:18:42;5.20;56.10
57719;DHT22;43561;50.090;18.522;2023-04-06T09:28:52;4.80;56.00
57719;DHT22;43561;50.090;18.522;2023-04-06T09:39:00;5.20;55.70
57719;DHT22;43561;50.090;18.522;2023-04-06T09:49:03;5.40;56.10
57719;DHT22;43561;50.090;18.522;2023-04-06T09:59:09;5.80;55.00
57719;DHT22;43561;50.090;18.522;2023-04-06T10:09:15;5.50;55.60
57719;DHT22;43561;50.090;18.522;2023-04-06T10:19:22;5.80;56.30
57719;DHT22;43561;50.090;18.522;2023-04-06T10:29:26;5.60;56.10
57719;DHT22;43561;50.090;18.522;2023-04-06T10:39:29;5.20;57.10
57719;DHT22;43561;50.090;18.522;2023-04-06T10:49:31;5.30;56.60
57719;DHT22;43561;50.090;18.522;2023-04-06T10:59:33;5.60;54.90
57719;DHT22;43561;50.090;18.522;2023-04-06T11:09:35;5.60;55.40
57719;DHT22;43561;50.090;18.522;2023-04-06T11:19:37;6.00;54.70
57719;DHT22;43561;50.090;18.522;2023-04-06T11:29:40;6.30;54.70
57719;DHT22;43561;50.090;18.522;2023-04-06T11:39:50;6.10;54.80
57719;DHT22;43561;50.090;18.522;2023-04-06T11:49:52;5.90;55.30
57719;DHT22;43561;50.090;18.522;2023-04-06T11:59:55;6.00;55.40
57719;DHT22;43561;50.090;18.522;2023-04-06T12:09:57;5.60;56.70
57719;DHT22;43561;50.090;18.522;2023-04-06T12:19:59;5.80;56.00
57719;DHT22;43561;50.090;18.522;2023-04-06T12:30:10;5.90;56.40
57719;DHT22;43561;50.090;18.522;2023-04-06T12:40:12;5.40;57.50
57719;DHT22;43561;50.090;18.522;2023-04-06T12:50:14;5.30;57.40
57719;DHT22;43561;50.090;18.522;2023-04-06T13:00:17;5.20;57.70
57719;DHT22;43561;50.090;18.522;2023-04-06T13:10:19;5.10;58.30
57719;DHT22;43561;50.090;18.522;2023-04-06T13:20:21;5.10;57.60
57719;DHT22;43561;50.090;18.522;2023-04-06T13:30:23;5.10;58.20
57719;DHT22;43561;50.090;18.522;2023-04-06T13:40:26;5.10;58.10
57719;DHT22;43561;50.090;18.522;2023-04-06T13:50:29;5.10;58.20
57719;DHT22;43561;50.090;18.522;2023-04-06T14:00:31;5.00;58.30
57719;DHT22;43561;50.090;18.522;2023-04-06T14:10:40;5.10;58.40
57719;DHT22;43561;50.090;18.522;2023-04-06T14:20:42;4.90;59.60
57719;DHT22;43561;50.090;18.522;2023-04-06T14:30:44;4.40;67.10
57719;DHT22;43561;50.090;18.522;2023-04-06T14:40:46;4.40;71.00
57719;DHT22;43561;50.090;18.522;2023-04-06T14:50:55;4.50;71.00
57719;DHT22;43561;50.090;18.522;2023-04-06T15:01:01;4.30;75.50
57719;DHT22;43561;50.090;18.522;2023-04-06T15:11:03;4.30;79.20
57719;DHT22;43561;50.090;18.522;2023-04-06T15:21:05;4.10;82.70
57719;DHT22;43561;50.090;18.522;2023-04-06T15:31:17;4.30;84.70
57719;DHT22;43561;50.090;18.522;2023-04-06T15:41:23;4.20;81.20
57719;DHT22;43561;50.090;18.522;2023-04-06T15:51:25;4.30;83.70
57719;DHT22;43561;50.090;18.522;2023-04-06T16:01:27;4.10;84.50
57719;DHT22;43561;50.090;18.522;2023-04-06T16:11:29;3.80;92.90
57719;DHT22;43561;50.090;18.522;2023-04-06T16:21:31;3.70;94.90
57719;DHT22;43561;50.090;18.522;2023-04-06T16:31:33;3.50;96.20
57719;DHT22;43561;50.090;18.522;2023-04-06T16:41:35;3.50;97.10
57719;DHT22;43561;50.090;18.522;2023-04-06T16:51:39;3.30;98.60
57719;DHT22;43561;50.090;18.522;2023-04-06T17:01:42;3.30;99.00
57719;DHT22;43561;50.090;18.522;2023-04-06T17:11:44;3.30;99.50
57719;DHT22;43561;50.090;18.522;2023-04-06T17:21:47;3.20;99.90
57719;DHT22;43561;50.090;18.522;2023-04-06T17:31:50;3.10;99.90
57719;DHT22;43561;50.090;18.522;2023-04-06T17:41:53;3.10;99.90
57719;DHT22;43561;50.090;18.522;2023-04-06T17:51:55;3.00;99.90
57719;DHT22;43561;50.090;18.522;2023-04-06T18:01:57;2.70;99.90
57719;DHT22;43561;50.090;18.522;2023-04-06T18:11:59;2.70;99.90
57719;DHT22;43561;50.090;18.522;2023-04-06T18:22:04;2.30;99.90
57719;DHT22;43561;50.090;18.522;2023-04-06T18:32:15;2.40;99.90
57719;DHT22;43561;50.090;18.522;2023-04-06T18:42:17;2.30;99.90
57719;DHT22;43561;50.090;18.522;2023-04-06T18:52:19;1.90;99.90
57719;DHT22;43561;50.090;18.522;2023-04-06T19:02:21;1.90;99.90
57719;DHT22;43561;50.090;18.522;2023-04-06T19:12:23;1.90;99.90
57719;DHT22;43561;50.090;18.522;2023-04-06T19:22:25;1.90;99.90
57719;DHT22;43561;50.090;18.522;2023-04-06T19:32:27;1.90;99.90
57719;DHT22;43561;50.090;18.522;2023-04-06T19:42:36;1.80;99.90
57719;DHT22;43561;50.090;18.522;2023-04-06T19:52:38;1.80;99.90
57719;DHT22;43561;50.090;18.522;2023-04-06T20:02:40;1.80;99.90
57719;DHT22;43561;50.090;18.522;2023-04-06T20:12:42;1.70;99.90
57719;DHT22;43561;50.090;18.522;2023-04-06T20:22:44;1.60;99.90
57719;DHT22;43561;50.090;18.522;2023-04-06T20:32:46;1.60;99.90
57719;DHT22;43561;50.090;18.522;2023-04-06T20:42:49;1.40;99.90
57719;DHT22;43561;50.090;18.522;2023-04-06T20:52:51;1.40;99.90
57719;DHT22;43561;50.090;18.522;2023-04-06T21:02:52;1.40;99.90
57719;DHT22;43561;50.090;18.522;2023-04-06T21:23:59;1.40;99.90
57719;DHT22;43561;50.090;18.522;2023-04-06T21:34:07;1.30;99.90
57719;DHT22;43561;50.090;18.522;2023-04-06T21:44:12;1.40;99.90
57719;DHT22;43561;50.090;18.522;2023-04-06T21:54:14;1.40;99.90
57719;DHT22;43561;50.090;18.522;2023-04-06T22:04:16;1.40;99.90
57719;DHT22;43561;50.090;18.522;2023-04-06T22:14:19;1.40;99.90
57719;DHT22;43561;50.090;18.522;2023-04-06T22:24:22;1.40;99.90
57719;DHT22;43561;50.090;18.522;2023-04-06T22:34:24;1.20;99.90
57719;DHT22;43561;50.090;18.522;2023-04-06T22:44:26;1.20;99.90
57719;DHT22;43561;50.090;18.522;2023-04-06T22:54:28;1.10;99.90
57719;DHT22;43561;50.090;18.522;2023-04-06T23:04:30;1.10;99.90
57719;DHT22;43561;50.090;18.522;2023-04-06T23:14:32;1.10;99.90
57719;DHT22;43561;50.090;18.522;2023-04-06T23:24:34;1.20;99.90
57719;DHT22;43561;50.090;18.522;2023-04-06T23:34:36;1.20;99.90
57719;DHT22;43561;50.090;18.522;2023-04-06T23:44:38;1.10;99.90
57719;DHT22;43561;50.090;18.522;2023-04-06T23:54:40;1.10;99.90
